Decoded Metar for CYET (EDSON in AB, CANADA) (IATA:YET) | Meteo·Mobile Aviation Weather
aviador You're here:

CYET Decoded Metar

EDSON in AB, CANADA
Report Time2019-01-16 05:00:00
UTC Time2019-01-16 05:45:31
Flight Rules lifr LIFR
Wind040° at 03 kt
W.Decomp.*RWY 07: 2.0 kt HW 2.3 kt LCW
W.Rank040° ranks 12
Current wind is below 040° avg. (5.2)
Visibility2816 m
Phenomena:Mist
Clouds:Overcast 003 Hf
Ceiling300 ft
Temp-9°C (ISA -18)
Dew Point-9°C (100% RH)
AAT-13.1°C
QNH1015 hPa
Density Alt797 ft
Elevation3,035 ft
Report Wrong Elevation
Raw Report
CYET 160500Z AUTO 04003KT 1 3/4SM BR OVC003 M09/M09 A2996 RMK ICG
SLP208=

Extra information for CYET:More info

Metar Taf Metar & Taf Last 4 Metars F.Rules Stats Wind Profile Meteogram Temp Stats Airport Information Weather charts Add Link Nearby VenuesMetar ALERT Operation Metar Decoded Social comments